KTVI/TVI METAR and TAF weather

Enter ICAO airport designator
Station Type Date Time Source
KTVI METAR 2018/12/17 16:35 UTC NOAA

KTVI 171635Z AUTO 34003KT 10SM CLR 13/08 A3021 RMK AO2


Station Type Date Time Source
KTVI Decoded METAR 2018/12/17 16:35 UTC NOAA

Thomasville, GA, United States (KTVI) 30-54-06N 083-52-53W
Dec 17, 2018 - 11:35 AM EST / 2018.12.17 1635 UTC
Wind: from the NNW (340 degrees) at 3 MPH (3 KT):0
Visibility: 10 mile(s):0
Sky conditions: clear
Temperature: 55 F (13 C)
Dew Point: 46 F (8 C)
Relative Humidity: 71%
Pressure (altimeter): 30.21 in. Hg (1023 hPa)
ob: KTVI 171635Z AUTO 34003KT 10SM CLR 13/08 A3021 RMK AO2
cycle: 16

Station Type Date Time Source
KTVI TAF UTC NOAA

Error!


Example: see airport list